Weather observations for the past three days for
Midland, Midland International Airport
Imperial (Metric)
Date Time (cdt) Wind (mph) Vis. (mi.) Weather Sky Cond. Temperature (ºF) Relative Humidity Wind Chill (°F) Heat Index (°F) Pressure Precipitation (in)
Air Dwpt 6 hour altimeter (in) sea level (mb) 1 hr 3 hr 6 hr
Max. Min.
04 14:53 Calm 10.00 Partly Cloudy SCT100 99 53.1 21% 97 29.93 1007.7
04 13:53 Vrbl 5 10.00 Fair CLR 98.1 54 23% 96 29.95 1008.5
04 12:53 Vrbl 3 10.00 Fair CLR 97 55.9 97 79 25% 95 29.98 1009.4
04 11:53 W 10 10.00 Fair CLR 95 57.9 29% 94 29.99 1010.0
04 10:53 SW 12 10.00 Fair CLR 90 61 38% 90 29.99 1010.0
04 09:53 SW 12 10.00 Fair CLR 84.9 66 53% 87 30 1010.2
04 08:53 S 15 9.00 Fair CLR 81 69.1 67% 84 29.99 1009.8
04 07:53 S 12 10.00 Fair CLR 79 64.9 62% 81 29.96 1009.1
04 06:53 S 10 10.00 Fair CLR 80.1 61 87.1 80.1 52% 81 29.96 1008.7
04 05:53 SW 10 10.00 Fair CLR 82 59 46% 82 29.95 1008.2
04 04:53 SW 9 10.00 Fair CLR 82.9 57.9 43% 83 29.94 1008.1
04 03:53 S 10 10.00 Fair CLR 84.9 57 39% 84 29.94 1007.9
04 02:53 SW 13 10.00 Fair CLR 86 57 37% 85 29.94 1008.1
04 01:53 SW 9 10.00 Fair CLR 86 55.9 36% 85 29.95 1008.4
04 00:53 S 6 10.00 Fair CLR 86 57 100 84.9 37% 85 29.94 1008.1
03 23:53 W 6 10.00 Fair CLR 86 57 37% 85 29.93 1007.8
03 22:53 W 7 10.00 A Few Clouds FEW110 90 52 27% 87 29.93 1007.6
03 21:53 S 6 10.00 Mostly Cloudy BKN120 91 48.9 24% 88 29.9 1007.0
03 20:53 E 7 10.00 Fair CLR 93.9 48 21% 90 29.88 1006.2
03 19:53 E 10 10.00 Fair CLR 98.1 48 18% 95 29.87 1005.8
03 18:53 SE 13 G 17 10.00 Fair CLR 100 50 102.9 95 18% 97 29.87 1005.6
03 17:53 E 9 G 17 10.00 Fair CLR 100.9 51.1 19% 98 29.86 1005.5
03 16:53 SE 8 10.00 A Few Clouds FEW110 100.9 53.1 20% 99 29.87 1005.6
03 15:53 S 12 G 18 10.00 Fair CLR 100.9 55 22% 99 29.89 1006.4
03 14:53 Vrbl 3 10.00 A Few Clouds FEW095 100 55 22% 98 29.92 1007.3
03 13:53 Calm 10.00 Fair CLR 97 55.9 25% 95 29.95 1008.3
03 12:53 S 3 10.00 Fair CLR 95 59 96.1 79 30% 94 29.98 1009.6
03 11:53 S 9 10.00 Fair CLR 93 60.1 33% 93 30 1010.2
03 10:53 S 12 10.00 Fair CLR 90 60.1 37% 90 30 1010.2
03 09:53 S 15 10.00 A Few Clouds FEW003 FEW120 87.1 59 39% 86 30 1010.2
03 08:53 S 9 5.00 A Few Clouds with Haze FEW003 82 57.9 44% 82 30 1010.3
03 07:53 S 6 10.00 Fair CLR 80.1 57.9 47% 81 29.98 1009.7
03 06:53 S 8 10.00 Fair CLR 80.1 57.9 84.9 80.1 47% 81 29.97 1009.1
03 05:53 SW 10 10.00 Fair CLR 81 57 44% 81 29.96 1008.8
03 04:53 S 8 10.00 Fair CLR 82 55.9 41% 82 29.97 1009.1
03 03:53 S 13 10.00 Fair CLR 82.9 55 38% 82 29.97 1009.1
03 02:53 S 9 10.00 Fair CLR 84 55 37% 83 29.97 1009.2
03 01:53 S 7 10.00 Fair CLR 82.9 54 37% 82 29.98 1009.5
03 00:53 SE 9 10.00 Fair CLR 82.9 53.1 98.1 82.9 36% 82 29.97 1009.4
02 23:53 S 8 10.00 Fair CLR 84.9 53.1 33% 83 29.97 1009.4
02 22:53 SE 8 10.00 Fair CLR 87.1 52 30% 85 29.98 1009.6
02 21:53 SE 9 10.00 Fair CLR 90 52 27% 87 29.97 1009.1
02 20:53 SE 9 10.00 Fair CLR 91.9 50 24% 89 29.94 1008.6
02 19:53 SE 10 10.00 Fair CLR 96.1 50 21% 93 29.93 1008.2
02 18:53 Calm 10.00 Fair CLR 98.1 50 100 93.9 20% 95 29.94 1008.2
02 17:53 SE 10 10.00 Fair CLR 99 51.1 20% 96 29.94 1008.3
02 16:53 Calm 10.00 Fair CLR 99 51.1 20% 96 29.95 1008.6
02 15:53 SW 9 10.00 A Few Clouds FEW100 99 52 21% 96 29.97 1009.4
02 14:53 SE 13 10.00 A Few Clouds FEW100 99 52 21% 96 30 1010.2
02 13:53 SE 9 10.00 Fair CLR 97 53.1 23% 95 30.02 1011.0
02 12:53 S 10 G 23 10.00 Fair CLR 95 53.1 95 73.9 24% 93 30.05 1012.0
02 11:53 S 13 10.00 Fair CLR 93 57.9 31% 92 30.07 1012.6
02 10:53 S 16 10.00 Fair CLR 90 57.9 34% 89 30.07 1012.8
02 09:53 S 15 10.00 Fair CLR 86 59 40% 85 30.08 1012.9
02 08:53 S 9 9.00 Fair CLR 79 57.9 49% 80 30.07 1013.1
02 07:53 SE 5 9.00 Fair CLR 75 55.9 52% 78 30.06 1012.7
02 06:53 S 6 10.00 Fair CLR 75 55.9 82.9 75 52% 78 30.05 1012.3
02 05:53 SE 6 10.00 Fair CLR 75 55 50% 78 30.05 1012.2
02 04:53 SE 5 10.00 Fair CLR 75.9 54 47% 78 30.05 1012.0
02 03:53 SE 5 10.00 Fair CLR 78.1 54 43% 79 30.05 1012.0
02 02:53 SE 5 10.00 Fair CLR 79 54 42% 79 30.05 1012.0
02 01:53 SE 5 10.00 Fair CLR 80.1 54 41% 80 30.04 1011.7
02 00:53 SE 8 10.00 A Few Clouds FEW110 82.9 54 95 82.9 37% 82 30.04 1011.5
01 23:53 SE 12 10.00 Partly Cloudy SCT110 86 54 33% 84 30.04 1011.5
01 22:53 SE 13 10.00 Partly Cloudy SCT120 87.1 53.1 31% 85 30.04 1011.7
01 21:53 SE 9 10.00 A Few Clouds FEW120 89.1 53.1 29% 87 30.01 1010.9
01 20:53 SE 12 10.00 A Few Clouds FEW100 91 53.1 27% 89 29.98 1010.0
01 19:53 SE 15 10.00 A Few Clouds FEW110 93.9 54 26% 92 29.97 1009.5
01 18:53 SE 17 G 23 10.00 Mostly Cloudy BKN095 96.1 54 98.1 91.9 24% 94 29.96 1009.2
01 17:53 SE 6 10.00 Fair CLR 96.1 54 24% 94 29.96 1009.0
01 16:53 SE 20 G 28 10.00 A Few Clouds FEW100 98.1 54 23% 96 29.97 1009.2
Date Time (cdt) Wind (mph) Vis. (mi.) Weather Sky Cond. Air Dwpt Max. Min. Relative Humidity Wind Chill (°F) Heat Index (°F) altimeter (in) sea level (mb) 1 hr 3 hr 6 hr
6 hour
Temperature (ºF) Pressure Precipitation (in)